Sapporo, Japan

7:07 AM JST on September 21, 2014 (GMT +0900)
New Chitose | Change Station
CLOSE
Current Station
Airport
Location: Chitose AB,
Elevation: 98 ft
Nearby Weather Stations

Elev 98 ft 42.77 °N, 141.69 °E | Updated 7 minutes ago

Partly Cloudy
Partly Cloudy
48 °F
Feels Like 48 °F
N
4
Wind Variable Wind from North

Today
High -- | Low -- °F
--% Chance of Precip.
Yesterday
High -- | Low -- °F
Precip. -- in
5:20 AM 5:34 PM
Waning Crescent, 10% visible
Pressure 30.04 in
Visibility 6.2 miles
Clouds Few 2000 ft
Dew Point 46 °F
Humidity 93%
Rainfall 0.00 in
Snow Depth Not available.
UV 1 out of 12
Pollen Not available.
Air Quality Not available.
Flu Activity Not available.
METAR RJCC 202200Z 36003KT 9999 R01L///// R01R/P1800N PRFG FEW020 09/08 Q1017 RMK 1CU020 A3004 0900NE-E FG NE-SE

More Conditions Fewer Conditions

Pressure 30.04 in
Visibility 6.2 miles
Clouds Few 2000 ft
Dew Point 46 °F
Humidity 93%
Rainfall 0.00 in
Snow Depth Not available.
UV 1 out of 12
Pollen Not available.
Air Quality Not available.
Flu Activity Not available.
METAR RJCC 202200Z 36003KT 9999 R01L///// R01R/P1800N PRFG FEW020 09/08 Q1017 RMK 1CU020 A3004 0900NE-E FG NE-SE

More Conditions Fewer Conditions

10-Day Weather Forecast

Almanac

Astronomy

Sep. 21, 2014 Rise Set
Actual Time 5:20 AM JST 5:34 PM JST
Civil Twilight 4:51 AM JST 6:03 PM JST
Nautical Twilight 4:18 AM JST 6:36 PM JST
Astronomical Twilight 3:44 AM JST 7:10 PM JST
Moon 2:15 AM JST (9/21) 3:53 PM JST (9/21)
Length of Visible Light 13h 11m
Length of Day
12h 14m
Tomorrow will be 2m 54s shorter.
Waning Crescent, 10% of the Moon is Illuminated
Sep 20
Waning Crescent
Sep 24
New
Oct 1
First Quarter
Oct 8
Full
Oct 15
Last Quarter

Yesterday's Extremes

Country Highs Country Lows

Community

WunderPhotos

Upload Photos

1,754,966 photos uploaded!

WunderBlogs® & News

Nearby

Snow Depth

Not available.

Earthquake Activity

City Distance Mag. Time & Date
No recent earthquake activity has been reported nearby.
Minimum magnitude displayed is 2.5.

Coastal Water Temperatures

Place Temperature
No Stations Reporting

Nearby Weather Stations